Time;durP1;ratioP1;P1;durP2;ratioP2;P2;SDS_P1;SDS_P2;PMS_P1;PMS_P2;Temp;Humidity;BMP_temperature;BMP_pressure;BME280_temperature;BME280_humidity;BME280_pressure;Samples;Min_cycle;Max_cycle;Signal;HPM_P1;HPM_P2
2023/02/17 00:00:34;;;;;;;;;;;;;;;2.71;100.00;99546.50;4980397;28;20287;-58
2023/02/17 00:03:00;;;;;;;;;;;;;;;2.51;100.00;99545.06;4983146;28;20487;-59
2023/02/17 00:05:26;;;;;;;;;;;;;;;2.33;100.00;99549.66;4978685;28;20075;-59
2023/02/17 00:07:52;;;;;;;;;;;;;;;2.21;100.00;99540.03;4980800;28;19949;-59
2023/02/17 00:10:17;;;;;;;;;;;;;;;2.27;100.00;99547.78;4985616;28;19977;-58
2023/02/17 00:12:43;;;;;;;;;;;;;;;2.24;100.00;99544.31;4996569;28;20056;-59
2023/02/17 00:15:08;;;;;;;;;;;;;;;2.20;100.00;99540.84;4998134;28;20074;-57
2023/02/17 00:17:34;;;;;;;;;;;;;;;2.12;100.00;99542.28;4997696;28;19973;-59
2023/02/17 00:20:00;;;;;;;;;;;;;;;2.06;100.00;99536.19;4993817;28;20398;-59
2023/02/17 00:22:31;;;;;;;;;;;;;;;1.94;100.00;99541.75;4996838;28;19943;-58
2023/02/17 00:24:56;;;;;;;;;;;;;;;1.85;100.00;99536.44;4997943;28;20005;-59
2023/02/17 00:27:22;;;;;;;;;;;;;;;1.78;100.00;99540.41;4997692;28;19945;-58
2023/02/17 00:29:49;;;;;;;;;;;;;;;1.69;100.00;99535.13;4999601;28;19954;-58
2023/02/17 00:32:15;;;;;;;;;;;;;;;1.61;100.00;99538.22;4988531;28;20481;-59
2023/02/17 00:34:41;;;;;;;;;;;;;;;1.52;100.00;99536.25;4995235;28;19947;-59
2023/02/17 00:37:06;;;;;;;;;;;;;;;1.45;100.00;99533.47;5023610;28;19970;-57
2023/02/17 00:39:32;;;;;;;;;;;;;;;1.45;100.00;99541.91;4997812;28;19945;-57
2023/02/17 00:41:57;;;;;;;;;;;;;;;1.52;100.00;99530.34;4997091;28;19951;-58
2023/02/17 00:44:24;;;;;;;;;;;;;;;1.58;100.00;99533.03;4999548;28;20032;-59
2023/02/17 00:46:50;;;;;;;;;;;;;;;1.73;100.00;99536.06;4995941;28;20418;-60
2023/02/17 00:49:17;;;;;;;;;;;;;;;1.82;100.00;99526.22;4997614;28;19960;-60
2023/02/17 00:51:43;;;;;;;;;;;;;;;1.86;100.00;99529.72;4996671;28;19990;-59
2023/02/17 00:54:08;;;;;;;;;;;;;;;1.76;100.00;99520.97;4997970;28;19942;-58
2023/02/17 00:56:34;;;;;;;;;;;;;;;1.67;100.00;99521.56;5032747;28;19969;-58
2023/02/17 00:59:01;;;;;;;;;;;;;;;1.63;100.00;99524.81;5001105;28;20039;-58
2023/02/17 01:01:27;;;;;;;;;;;;;;;1.54;100.00;99524.53;5000982;28;20416;-59
2023/02/17 01:03:52;;;;;;;;;;;;;;;1.48;100.00;99526.88;5001066;28;20441;-57
2023/02/17 01:06:22;;;;;;;;;;;;;;;1.47;100.00;99520.09;5000663;28;19982;-59
2023/02/17 01:08:47;;;;;;;;;;;;;;;1.43;100.00;99522.47;5000303;28;19940;-60
2023/02/17 01:11:20;;;;;;;;;;;;;;;1.34;100.00;99518.00;5000554;28;19968;-59
2023/02/17 01:13:45;;;;;;;;;;;;;;;1.30;100.00;99514.53;5033578;28;20179;-58
2023/02/17 01:16:18;;;;;;;;;;;;;;;1.24;100.00;99508.41;5001416;28;19960;-59
2023/02/17 01:18:43;;;;;;;;;;;;;;;1.22;100.00;99510.03;5000070;28;19991;-58
2023/02/17 01:21:17;;;;;;;;;;;;;;;1.22;100.00;99510.03;5002541;28;19948;-58
2023/02/17 01:23:43;;;;;;;;;;;;;;;1.22;100.00;99510.91;5032259;28;19989;-60
2023/02/17 01:26:12;;;;;;;;;;;;;;;1.24;100.00;99508.41;5001603;28;19943;-59
2023/02/17 01:28:38;;;;;;;;;;;;;;;1.23;100.00;99499.97;5002362;28;20042;-59
2023/02/17 01:31:05;;;;;;;;;;;;;;;1.25;100.00;99515.16;5012272;28;20424;-58
2023/02/17 01:33:30;;;;;;;;;;;;;;;1.28;100.00;99500.09;5001277;28;20030;-60
2023/02/17 01:36:00;;;;;;;;;;;;;;;1.42;100.00;99496.34;5000282;28;19978;-57
2023/02/17 01:38:25;;;;;;;;;;;;;;;1.35;100.00;99494.47;5001367;28;20066;-57
2023/02/17 01:40:51;;;;;;;;;;;;;;;1.32;100.00;99486.75;5003372;28;20509;-57
2023/02/17 01:43:20;;;;;;;;;;;;;;;1.34;100.00;99490.22;5000645;28;19948;-58
2023/02/17 01:45:55;;;;;;;;;;;;;;;1.37;100.00;99488.63;5001074;28;20497;-58
2023/02/17 01:48:26;;;;;;;;;;;;;;;1.43;100.00;99484.59;5000766;28;19954;-58
2023/02/17 01:51:04;;;;;;;;;;;;;;;1.51;100.00;99473.91;5000675;28;19948;-59
2023/02/17 01:53:52;;;;;;;;;;;;;;;1.84;100.00;99476.56;5000827;28;20053;-59
2023/02/17 01:56:18;;;;;;;;;;;;;;;1.87;100.00;99453.88;5004272;28;19962;-58
2023/02/17 01:58:47;;;;;;;;;;;;;;;1.97;100.00;99475.25;5033334;28;19954;-58
2023/02/17 02:01:12;;;;;;;;;;;;;;;2.09;100.00;99455.34;5031281;28;19969;-56
2023/02/17 02:03:38;;;;;;;;;;;;;;;2.14;100.00;99471.53;4999400;28;20063;-59
2023/02/17 02:06:07;;;;;;;;;;;;;;;2.25;100.00;99460.88;4999079;28;19965;-58
2023/02/17 02:08:50;;;;;;;;;;;;;;;2.22;100.00;99463.31;4999830;28;19953;-58
2023/02/17 02:11:15;;;;;;;;;;;;;;;2.23;100.00;99462.53;5014656;28;19969;-57
2023/02/17 02:13:41;;;;;;;;;;;;;;;2.22;100.00;99455.75;4999433;28;19973;-58
2023/02/17 02:16:19;;;;;;;;;;;;;;;2.36;100.00;99453.59;4999946;28;20056;-60
2023/02/17 02:18:51;;;;;;;;;;;;;;;2.41;100.00;99454.56;4999758;28;20562;-57
2023/02/17 02:21:49;;;;;;;;;;;;;;;2.47;100.00;99452.19;5000930;28;19970;-57
2023/02/17 02:24:21;;;;;;;;;;;;;;;2.50;100.00;99443.84;4990955;28;19967;-59
2023/02/17 02:27:05;;;;;;;;;;;;;;;2.44;100.00;99439.47;4999073;28;19967;-59
2023/02/17 02:29:40;;;;;;;;;;;;;;;2.39;100.00;99452.78;4999009;28;20365;-60
2023/02/17 02:32:25;;;;;;;;;;;;;;;2.44;100.00;99438.59;4999139;28;19949;-57
2023/02/17 02:34:53;;;;;;;;;;;;;;;2.48;100.00;99437.84;5001264;28;20536;-60
2023/02/17 02:37:29;;;;;;;;;;;;;;;2.49;100.00;99442.97;4999815;28;20008;-59
2023/02/17 02:39:56;;;;;;;;;;;;;;;2.50;100.00;99432.03;5001025;28;19951;-58
2023/02/17 02:42:24;;;;;;;;;;;;;;;2.45;100.00;99431.06;4995207;28;19975;-58
2023/02/17 02:44:50;;;;;;;;;;;;;;;2.39;100.00;99428.34;4999858;28;19946;-59
2023/02/17 02:47:34;;;;;;;;;;;;;;;2.50;100.00;99433.72;4998708;28;19950;-59
2023/02/17 02:50:00;;;;;;;;;;;;;;;2.60;100.00;99431.44;5030023;28;20037;-59
2023/02/17 02:52:36;;;;;;;;;;;;;;;2.58;100.00;99430.56;5014481;28;20034;-57
2023/02/17 02:55:14;;;;;;;;;;;;;;;2.57;100.00;99428.84;5010463;28;19942;-58
2023/02/17 02:57:43;;;;;;;;;;;;;;;2.58;100.00;99422.09;5012627;28;19946;-58
2023/02/17 03:00:11;;;;;;;;;;;;;;;2.76;100.00;99422.53;4996363;28;20015;-59
2023/02/17 03:02:47;;;;;;;;;;;;;;;2.79;100.00;99414.19;4998883;28;19953;-59
2023/02/17 03:05:33;;;;;;;;;;;;;;;2.75;100.00;99416.66;4994318;28;19945;-59
2023/02/17 03:08:07;;;;;;;;;;;;;;;2.88;100.00;99424.53;4994412;28;20333;-59
2023/02/17 03:10:34;;;;;;;;;;;;;;;2.89;100.00;99423.69;4998932;28;19988;-60
2023/02/17 03:13:01;;;;;;;;;;;;;;;2.94;100.00;99424.66;5031854;28;19942;-59
2023/02/17 03:15:30;;;;;;;;;;;;;;;3.00;100.00;99418.09;4996388;28;19973;-59
2023/02/17 03:17:56;;;;;;;;;;;;;;;3.03;100.00;99425.75;5023866;28;19945;-58
2023/02/17 03:20:22;;;;;;;;;;;;;;;3.12;100.00;99423.44;4994825;28;19964;-58
2023/02/17 03:22:48;;;;;;;;;;;;;;;3.13;100.00;99417.56;5029925;28;19950;-58
2023/02/17 03:25:14;;;;;;;;;;;;;;;3.12;100.00;99431.03;5000270;28;20018;-58
2023/02/17 03:27:41;;;;;;;;;;;;;;;3.33;100.00;99418.00;5000848;28;19943;-58
2023/02/17 03:30:07;;;;;;;;;;;;;;;3.34;100.00;99418.84;5010221;28;19951;-58
2023/02/17 03:32:33;;;;;;;;;;;;;;;3.31;100.00;99424.69;4999178;28;20422;-58
2023/02/17 03:34:58;;;;;;;;;;;;;;;3.27;100.00;99437.28;5001458;28;19986;-59
2023/02/17 03:37:24;;;;;;;;;;;;;;;3.25;100.00;99429.63;5000250;28;19961;-59
2023/02/17 03:39:50;;;;;;;;;;;;;;;3.23;100.00;99428.72;5000448;28;19976;-58
2023/02/17 03:42:15;;;;;;;;;;;;;;;3.27;100.00;99429.69;4999856;28;19957;-63
2023/02/17 03:44:41;;;;;;;;;;;;;;;3.28;100.00;99431.38;4998168;28;19955;-59
2023/02/17 03:47:07;;;;;;;;;;;;;;;3.25;100.00;99426.25;4998807;28;19947;-58
2023/02/17 03:49:32;;;;;;;;;;;;;;;3.29;100.00;99426.34;5000216;28;19954;-57
2023/02/17 03:51:58;;;;;;;;;;;;;;;3.27;100.00;99427.97;5014343;28;19947;-58
2023/02/17 03:54:24;;;;;;;;;;;;;;;3.25;100.00;99434.72;5000649;28;19949;-59
2023/02/17 03:56:49;;;;;;;;;;;;;;;3.27;100.00;99433.03;4998751;28;20320;-58
2023/02/17 03:59:15;;;;;;;;;;;;;;;3.29;100.00;99433.09;4999746;28;19976;-59
2023/02/17 04:01:40;;;;;;;;;;;;;;;3.34;100.00;99434.91;5009255;28;19945;-58
2023/02/17 04:04:06;;;;;;;;;;;;;;;3.54;100.00;99437.88;5000280;28;19954;-60
2023/02/17 04:06:31;;;;;;;;;;;;;;;3.54;100.00;99443.81;4997396;28;19946;-58
2023/02/17 04:08:56;;;;;;;;;;;;;;;3.57;100.00;99441.34;5010106;28;20105;-58
2023/02/17 04:11:23;;;;;;;;;;;;;;;3.63;100.00;99444.00;4996547;28;19967;-59
2023/02/17 04:13:48;;;;;;;;;;;;;;;3.57;100.00;99448.94;4998393;28;20425;-57
2023/02/17 04:16:14;;;;;;;;;;;;;;;3.60;100.00;99445.63;4999457;28;20020;-59
2023/02/17 04:18:39;;;;;;;;;;;;;;;3.59;100.00;99452.38;4998784;28;19956;-58
2023/02/17 04:21:05;;;;;;;;;;;;;;;3.60;100.00;99451.56;4999244;28;19950;-59
2023/02/17 04:23:30;;;;;;;;;;;;;;;3.64;100.00;99439.81;4998737;28;20081;-58
2023/02/17 04:25:56;;;;;;;;;;;;;;;3.72;100.00;99443.34;5014424;28;20463;-58
2023/02/17 04:28:22;;;;;;;;;;;;;;;3.71;100.00;99441.63;5000425;28;19945;-58
2023/02/17 04:30:48;;;;;;;;;;;;;;;3.77;100.00;99423.16;5003218;28;19968;-58
2023/02/17 04:33:14;;;;;;;;;;;;;;;3.80;100.00;99424.09;5001348;28;20112;-59
2023/02/17 04:35:39;;;;;;;;;;;;;;;3.86;100.00;99428.44;5003245;28;20143;-58
2023/02/17 04:38:06;;;;;;;;;;;;;;;3.75;100.00;99420.59;5002398;28;19946;-58
2023/02/17 04:40:35;;;;;;;;;;;;;;;3.76;100.00;99421.44;5003145;28;20472;-57
2023/02/17 04:43:00;;;;;;;;;;;;;;;3.74;100.00;99420.53;5002388;28;20387;-59
2023/02/17 04:45:26;;;;;;;;;;;;;;;3.76;100.00;99417.25;5002099;28;19954;-58
2023/02/17 04:47:51;;;;;;;;;;;;;;;3.76;100.00;99408.78;5003596;28;20131;-57
2023/02/17 04:50:21;;;;;;;;;;;;;;;3.72;100.00;99407.00;5003083;28;20083;-57
2023/02/17 04:52:47;;;;;;;;;;;;;;;3.67;100.00;99409.44;5003302;28;19985;-59
2023/02/17 04:55:15;;;;;;;;;;;;;;;3.63;100.00;99416.13;5002674;28;19955;-57
2023/02/17 04:57:40;;;;;;;;;;;;;;;3.69;100.00;99408.63;5001714;28;19952;-58
2023/02/17 05:00:07;;;;;;;;;;;;;;;3.63;100.00;99405.13;5001687;28;20435;-57
2023/02/17 05:02:32;;;;;;;;;;;;;;;3.60;100.00;99402.53;5002792;28;19948;-57
2023/02/17 05:04:57;;;;;;;;;;;;;;;3.55;100.00;99391.44;5003177;28;19946;-57
2023/02/17 05:07:23;;;;;;;;;;;;;;;3.52;100.00;99391.38;5003298;28;20303;-59
2023/02/17 05:09:48;;;;;;;;;;;;;;;3.62;100.00;99395.81;5002612;28;19952;-58
2023/02/17 05:12:14;;;;;;;;;;;;;;;3.65;100.00;99386.56;5002619;28;19972;-58
2023/02/17 05:14:39;;;;;;;;;;;;;;;3.61;100.00;99386.47;5002676;28;19959;-58
2023/02/17 05:17:05;;;;;;;;;;;;;;;3.53;100.00;99388.84;5002781;28;20017;-59
2023/02/17 05:19:30;;;;;;;;;;;;;;;3.56;100.00;99391.47;5003951;28;19995;-58
2023/02/17 05:21:56;;;;;;;;;;;;;;;3.63;100.00;99392.44;5001813;28;19996;-58
2023/02/17 05:24:21;;;;;;;;;;;;;;;3.57;100.00;99397.38;5002469;28;19948;-58
2023/02/17 05:26:52;;;;;;;;;;;;;;;3.77;100.00;99395.28;5003069;28;19949;-56
2023/02/17 05:29:18;;;;;;;;;;;;;;;3.73;100.00;99393.50;5001698;28;20010;-58
2023/02/17 05:31:43;;;;;;;;;;;;;;;3.78;100.00;99386.84;5002302;28;19954;-57
2023/02/17 05:34:09;;;;;;;;;;;;;;;3.79;100.00;99388.53;5003322;28;19946;-59
2023/02/17 05:36:40;;;;;;;;;;;;;;;3.77;100.00;99383.44;5002909;28;20396;-59
2023/02/17 05:39:11;;;;;;;;;;;;;;;3.71;100.00;99375.72;4998838;28;20173;-58
2023/02/17 05:42:01;;;;;;;;;;;;;;;3.70;100.00;99374.00;4999368;28;19995;-57
2023/02/17 05:44:27;;;;;;;;;;;;;;;3.71;100.00;99374.84;5001214;28;20048;-58
2023/02/17 05:46:55;;;;;;;;;;;;;;;3.64;100.00;99377.28;5000656;28;20189;-57
2023/02/17 05:49:21;;;;;;;;;;;;;;;3.58;100.00;99373.75;5001023;28;19947;-57
2023/02/17 05:51:56;;;;;;;;;;;;;;;3.59;100.00;99368.72;4999432;28;20458;-57
2023/02/17 05:55:09;;;;;;;;;;;;;;;;;;;;;
2023/02/17 05:57:47;;;;;;;;;;;;;;;3.41;100.00;99362.41;5002913;28;19946;-56
2023/02/17 06:00:13;;;;;;;;;;;;;;;3.29;100.00;99365.53;5000664;28;19942;-58
2023/02/17 06:02:38;;;;;;;;;;;;;;;3.25;100.00;99361.22;5001195;28;20386;-59
2023/02/17 06:05:04;;;;;;;;;;;;;;;3.23;100.00;99358.66;5003177;28;20573;-54
2023/02/17 06:07:29;;;;;;;;;;;;;;;3.12;100.00;99360.09;5004266;28;20042;-52
2023/02/17 06:10:20;;;;;;;;;;;;;;;3.04;100.00;99359.09;5004352;28;19949;-56
2023/02/17 06:13:10;;;;;;;;;;;;;;;3.01;100.00;99364.06;5002004;28;20092;-56
2023/02/17 06:15:39;;;;;;;;;;;;;;;2.92;100.00;99356.28;5000864;28;19957;-55
2023/02/17 06:18:04;;;;;;;;;;;;;;;2.85;100.00;99368.72;4999553;28;20320;-57
2023/02/17 06:20:30;;;;;;;;;;;;;;;2.89;100.00;99367.97;4996881;28;20054;-53
2023/02/17 06:22:55;;;;;;;;;;;;;;;2.93;100.00;99367.25;4989599;28;19943;-54
2023/02/17 06:25:21;;;;;;;;;;;;;;;2.94;100.00;99386.69;4997374;28;19951;-55
2023/02/17 06:27:46;;;;;;;;;;;;;;;3.06;100.00;99382.75;4996846;28;20382;-55
2023/02/17 06:30:13;;;;;;;;;;;;;;;2.98;100.00;99388.47;4999819;28;19945;-56
2023/02/17 06:32:38;;;;;;;;;;;;;;;2.93;100.00;99387.53;4986792;28;20000;-57
2023/02/17 06:35:04;;;;;;;;;;;;;;;2.92;100.00;99383.28;5000578;28;19955;-55
2023/02/17 06:37:29;;;;;;;;;;;;;;;2.89;100.00;99385.72;4999722;28;20008;-63
2023/02/17 06:39:55;;;;;;;;;;;;;;;2.83;100.00;99388.13;4999158;28;20023;-58
2023/02/17 06:42:29;;;;;;;;;;;;;;;2.82;100.00;99387.25;5004346;28;20431;-58
2023/02/17 06:45:05;;;;;;;;;;;;;;;2.80;100.00;99383.00;4999919;28;19963;-56
2023/02/17 06:47:33;;;;;;;;;;;;;;;2.80;100.00;99386.34;5000589;28;19941;-59
2023/02/17 06:49:59;;;;;;;;;;;;;;;2.83;100.00;99375.47;4999934;28;20091;-59
2023/02/17 06:53:13;;;;;;;;;;;;;;;2.93;100.00;99377.41;4998118;28;19949;-63
2023/02/17 06:55:25;;;;;;;;;;;;;;;3.03;100.00;99375.09;4994688;28;20036;-58
2023/02/17 06:57:51;;;;;;;;;;;;;;;3.14;100.00;99371.13;4999022;28;19973;-58
2023/02/17 07:00:17;;;;;;;;;;;;;;;3.14;100.00;99388.00;4998443;28;19991;-59
2023/02/17 07:02:42;;;;;;;;;;;;;;;3.20;100.00;99389.00;4998628;28;20022;-59
2023/02/17 07:05:08;;;;;;;;;;;;;;;3.21;100.00;99379.72;4996412;28;19946;-59
2023/02/17 07:07:33;;;;;;;;;;;;;;;3.26;100.00;99385.75;4998694;28;19953;-59
2023/02/17 07:09:59;;;;;;;;;;;;;;;3.39;100.00;99382.66;4998961;28;19942;-58
2023/02/17 07:12:26;;;;;;;;;;;;;;;3.52;100.00;99376.19;4994969;28;19976;-60
2023/02/17 07:14:51;;;;;;;;;;;;;;;3.62;100.00;99361.16;4999376;28;19950;-59
2023/02/17 07:17:17;;;;;;;;;;;;;;;3.70;100.00;99356.25;4998556;28;20334;-58
2023/02/17 07:19:42;;;;;;;;;;;;;;;3.89;100.00;99367.63;4998773;28;19974;-59
2023/02/17 07:22:08;;;;;;;;;;;;;;;4.12;100.00;99376.50;4994389;28;20380;-58
2023/02/17 07:24:33;;;;;;;;;;;;;;;4.35;100.00;99377.78;4999743;28;20339;-58
2023/02/17 07:26:59;;;;;;;;;;;;;;;4.58;100.00;99376.47;4998735;28;19942;-59
2023/02/17 07:29:25;;;;;;;;;;;;;;;4.78;100.00;99375.97;4994089;28;20431;-58
2023/02/17 07:31:51;;;;;;;;;;;;;;;5.06;100.00;99360.28;4994664;28;19943;-58
2023/02/17 07:34:17;;;;;;;;;;;;;;;5.27;100.00;99367.38;4997042;28;20037;-59
2023/02/17 07:36:43;;;;;;;;;;;;;;;5.48;100.00;99360.88;4993866;28;19960;-59
2023/02/17 07:39:08;;;;;;;;;;;;;;;5.76;100.00;99359.56;4994742;28;20424;-59
2023/02/17 07:41:34;;;;;;;;;;;;;;;6.04;100.00;99357.31;5026604;28;20441;-59
2023/02/17 07:44:08;;;;;;;;;;;;;;;6.33;100.00;99361.88;5028282;28;19952;-58
2023/02/17 07:46:35;;;;;;;;;;;;;;;6.57;100.00;99353.63;5009438;28;20314;-59
2023/02/17 07:49:00;;;;;;;;;;;;;;;6.89;100.00;99352.16;4993676;28;19945;-59
2023/02/17 07:51:26;;;;;;;;;;;;;;;7.09;100.00;99348.88;4996420;28;20064;-60
2023/02/17 07:54:15;;;;;;;;;;;;;;;7.38;100.00;99346.53;4997246;28;20373;-59
2023/02/17 07:56:42;;;;;;;;;;;;;;;7.77;100.00;99349.22;5022383;28;20639;-57
2023/02/17 07:59:09;;;;;;;;;;;;;;;8.06;100.00;99328.91;4996721;28;20491;-59
2023/02/17 08:01:34;;;;;;;;;;;;;;;8.38;100.00;99337.50;4993294;28;20036;-59
2023/02/17 08:03:59;;;;;;;;;;;;;;;8.77;100.00;99325.59;4995657;28;20665;-57
2023/02/17 08:06:25;;;;;;;;;;;;;;;9.00;100.00;99331.53;4993888;28;19981;-60
2023/02/17 08:14:30;;;;;;;;;;;;;;;9.51;100.00;99336.50;5016756;28;19945;-59
2023/02/17 08:16:55;;;;;;;;;;;;;;;9.63;100.00;99340.75;5016202;28;19963;-59
2023/02/17 08:19:21;;;;;;;;;;;;;;;9.70;100.00;99342.44;5018986;28;20183;-59
2023/02/17 08:21:47;;;;;;;;;;;;;;;9.79;100.00;99342.38;5018314;28;19947;-59
2023/02/17 08:24:15;;;;;;;;;;;;;;;9.81;100.00;99335.53;5016062;28;19942;-59
2023/02/17 08:26:43;;;;;;;;;;;;;;;9.79;100.00;99346.66;5013884;28;20012;-60
2023/02/17 08:29:09;;;;;;;;;;;;;;;9.92;100.00;99330.38;5017039;28;19956;-61
2023/02/17 08:31:35;;;;;;;;;;;;;;;10.00;100.00;99336.31;5015318;28;19947;-60
2023/02/17 08:34:02;;;;;;;;;;;;;;;10.15;100.00;99340.47;5016874;28;19967;-61
2023/02/17 08:36:28;;;;;;;;;;;;;;;10.26;100.00;99334.47;5016183;28;20496;-61
2023/02/17 08:38:54;;;;;;;;;;;;;;;10.33;100.00;99340.41;5020066;28;20047;-61
2023/02/17 08:41:21;;;;;;;;;;;;;;;10.58;100.00;99343.63;5020655;28;19946;-60
2023/02/17 08:43:47;;;;;;;;;;;;;;;10.76;100.00;99352.06;5021187;28;19941;-60
2023/02/17 08:46:13;;;;;;;;;;;;;;;10.85;100.00;99349.41;5016348;28;19972;-60
2023/02/17 08:48:39;;;;;;;;;;;;;;;10.94;100.00;99344.22;5016678;28;19998;-61
2023/02/17 08:51:04;;;;;;;;;;;;;;;11.12;95.29;99332.06;5016989;28;19955;-61
2023/02/17 08:53:32;;;;;;;;;;;;;;;11.20;95.12;99349.06;5014511;28;19952;-61
2023/02/17 08:55:57;;;;;;;;;;;;;;;11.36;96.61;99334.38;5015959;28;19971;-60
2023/02/17 08:58:26;;;;;;;;;;;;;;;11.38;99.22;99342.88;5021213;28;20314;-61
2023/02/17 09:00:54;;;;;;;;;;;;;;;11.51;99.19;99339.31;5022756;28;19951;-60
2023/02/17 09:03:20;;;;;;;;;;;;;;;11.63;99.28;99328.91;5019249;28;19972;-60
2023/02/17 09:05:45;;;;;;;;;;;;;;;11.78;98.01;99315.91;5017352;28;19946;-62
2023/02/17 09:08:11;;;;;;;;;;;;;;;11.85;96.64;99327.81;5001815;28;20475;-61
2023/02/17 09:10:36;;;;;;;;;;;;;;;11.82;97.04;99319.28;5021127;28;20396;-61
2023/02/17 09:13:02;;;;;;;;;;;;;;;11.84;97.68;99325.25;5019554;28;20421;-59
2023/02/17 09:15:28;;;;;;;;;;;;;;;11.87;97.68;99327.78;5020732;28;19947;-61
2023/02/17 09:17:56;;;;;;;;;;;;;;;12.08;96.46;99327.50;5021801;28;19964;-60
2023/02/17 09:20:22;;;;;;;;;;;;;;;12.17;94.62;99327.38;5034297;28;19947;-59
2023/02/17 09:22:47;;;;;;;;;;;;;;;12.20;93.53;99326.47;5021017;28;20438;-60
2023/02/17 09:25:13;;;;;;;;;;;;;;;12.32;93.02;99313.44;5023854;28;19963;-63
2023/02/17 09:27:38;;;;;;;;;;;;;;;12.47;93.32;99315.78;5022721;28;20030;-60
2023/02/17 09:30:06;;;;;;;;;;;;;;;12.55;93.44;99316.53;5018693;28;20500;-60
2023/02/17 09:32:32;;;;;;;;;;;;;;;13.25;85.72;99308.44;4998841;28;20056;-59
2023/02/17 09:35:00;;;;;;;;;;;;;;;13.43;83.99;99309.81;5035156;28;19995;-61
2023/02/17 09:37:25;;;;;;;;;;;;;;;13.69;82.60;99304.16;5016964;28;20026;-62
2023/02/17 09:39:51;;;;;;;;;;;;;;;13.82;81.26;99304.72;5017604;28;20271;-60
2023/02/17 09:42:24;;;;;;;;;;;;;;;14.05;79.63;99317.97;5017686;28;19951;-62
2023/02/17 09:44:53;;;;;;;;;;;;;;;14.11;78.71;99289.47;5018234;28;20465;-61
2023/02/17 09:47:24;;;;;;;;;;;;;;;14.13;78.45;99306.59;5020694;28;19947;-62
2023/02/17 09:49:55;;;;;;;;;;;;;;;14.06;78.73;99309.34;5001516;28;19945;-61
2023/02/17 09:52:30;;;;;;;;;;;;;;;14.10;78.83;99309.25;5018489;28;20488;-64
2023/02/17 09:55:04;;;;;;;;;;;;;;;14.13;79.40;99295.47;5020385;28;19972;-61
2023/02/17 09:57:34;;;;;;;;;;;;;;;14.21;79.68;99290.13;5021176;28;19957;-61
2023/02/17 10:00:07;;;;;;;;;;;;;;;14.24;79.51;99298.63;5038210;28;19991;-61
2023/02/17 10:02:35;;;;;;;;;;;;;;;14.33;79.51;99306.16;5019206;28;19957;-61
2023/02/17 10:05:04;;;;;;;;;;;;;;;14.46;77.83;99305.03;5021629;28;19950;-62
2023/02/17 10:07:33;;;;;;;;;;;;;;;14.37;76.53;99292.34;5018606;28;19988;-67
2023/02/17 10:10:06;;;;;;;;;;;;;;;14.26;77.36;99291.69;5019757;28;20065;-60
2023/02/17 10:12:38;;;;;;;;;;;;;;;14.22;76.73;99279.75;5021342;28;20403;-58
2023/02/17 10:15:07;;;;;;;;;;;;;;;14.24;77.40;99280.56;5019678;28;20327;-61
2023/02/17 10:17:32;;;;;;;;;;;;;;;14.17;76.88;99276.44;5018939;28;20084;-60
2023/02/17 10:20:01;;;;;;;;;;;;;;;14.33;76.21;99285.53;5020541;28;19967;-61
2023/02/17 10:22:27;;;;;;;;;;;;;;;14.42;77.01;99275.03;5024333;28;20083;-60
2023/02/17 10:24:52;;;;;;;;;;;;;;;14.32;80.33;99275.22;5020984;28;19942;-60
2023/02/17 10:27:27;;;;;;;;;;;;;;;14.36;82.19;99274.31;5021995;28;19943;-60
2023/02/17 10:29:55;;;;;;;;;;;;;;;14.25;83.65;99264.22;5022373;28;19944;-60
2023/02/17 10:32:25;;;;;;;;;;;;;;;14.12;85.23;99262.81;5017877;28;19949;-60
2023/02/17 10:35:09;;;;;;;;;;;;;;;14.20;86.12;99263.47;5019684;28;20003;-60
2023/02/17 10:38:10;;;;;;;;;;;;;;;14.26;83.09;99263.31;5021640;28;19963;-64
2023/02/17 10:40:36;;;;;;;;;;;;;;;14.35;81.11;99257.09;4961223;28;19947;-58
2023/02/17 10:43:04;;;;;;;;;;;;;;;14.31;83.82;99256.31;4960155;28;19941;-62
2023/02/17 10:45:32;;;;;;;;;;;;;;;14.40;83.17;99244.97;4961540;28;19967;-59
2023/02/17 10:48:02;;;;;;;;;;;;;;;14.39;82.13;99240.69;4947938;28;20674;-60
2023/02/17 10:50:28;;;;;;;;;;;;;;;14.37;84.83;99240.75;4961035;28;19942;-60
2023/02/17 10:52:55;;;;;;;;;;;;;;;14.26;82.78;99239.28;4947210;28;20052;-59
2023/02/17 10:55:28;;;;;;;;;;;;;;;14.31;82.73;99247.72;4948599;28;20048;-60
2023/02/17 10:57:59;;;;;;;;;;;;;;;14.24;83.17;99251.34;4961891;28;20471;-60
2023/02/17 11:00:25;;;;;;;;;;;;;;;14.20;84.90;99240.25;4960460;28;20322;-55
2023/02/17 11:02:51;;;;;;;;;;;;;;;14.16;86.95;99236.06;4957663;28;20041;-58
2023/02/17 11:05:22;;;;;;;;;;;;;;;14.07;86.83;99236.28;4956394;28;20274;-60
2023/02/17 11:07:53;;;;;;;;;;;;;;;14.04;87.16;99229.47;4961552;28;20354;-58
2023/02/17 11:10:18;;;;;;;;;;;;;;;14.05;89.13;99230.28;4960601;28;20551;-59
2023/02/17 11:12:44;;;;;;;;;;;;;;;13.87;90.45;99215.28;4960499;28;19988;-59
2023/02/17 11:15:20;;;;;;;;;;;;;;;13.64;93.37;99231.25;5006846;28;20297;-59
2023/02/17 11:17:47;;;;;;;;;;;;;;;13.62;93.97;99222.72;5019959;28;19949;-58
2023/02/17 11:20:12;;;;;;;;;;;;;;;13.67;93.91;99224.28;5005207;28;19977;-59
2023/02/17 11:22:39;;;;;;;;;;;;;;;13.69;95.34;99219.97;5019542;28;20051;-58
2023/02/17 11:25:25;;;;;;;;;;;;;;;13.66;95.65;99216.59;5023358;28;19953;-59
2023/02/17 11:28:14;;;;;;;;;;;;;;;13.59;96.02;99210.72;5019820;28;20416;-59
2023/02/17 11:30:47;;;;;;;;;;;;;;;13.45;97.29;99217.06;5014992;28;19982;-59
2023/02/17 11:33:14;;;;;;;;;;;;;;;13.34;99.45;99226.72;5017536;28;19970;-58
2023/02/17 11:35:40;;;;;;;;;;;;;;;13.24;100.00;99210.59;5015573;28;19976;-59
2023/02/17 11:38:16;;;;;;;;;;;;;;;13.32;100.00;99211.31;5014645;28;20010;-59
2023/02/17 11:40:54;;;;;;;;;;;;;;;13.20;100.00;99199.53;5016653;28;20044;-58
2023/02/17 11:43:25;;;;;;;;;;;;;;;13.13;100.00;99194.53;5021829;28;19941;-57
2023/02/17 11:45:59;;;;;;;;;;;;;;;13.20;100.00;99196.09;5020475;28;19992;-58
2023/02/17 11:48:25;;;;;;;;;;;;;;;13.22;100.00;99195.22;5017289;28;19997;-60
2023/02/17 11:51:09;;;;;;;;;;;;;;;13.14;100.00;99198.81;5019634;28;20482;-60
2023/02/17 11:54:01;;;;;;;;;;;;;;;13.15;100.00;99206.50;5018818;28;19947;-58
2023/02/17 11:56:50;;;;;;;;;;;;;;;13.15;100.00;99203.91;4966843;28;19985;-60
2023/02/17 11:59:34;;;;;;;;;;;;;;;13.18;100.00;99206.44;4956394;28;20369;-61
2023/02/17 12:02:06;;;;;;;;;;;;;;;13.14;100.00;99203.97;4964787;28;19939;-61
2023/02/17 12:04:35;;;;;;;;;;;;;;;13.20;100.00;99208.97;4965171;28;19973;-62
2023/02/17 12:07:19;;;;;;;;;;;;;;;13.22;100.00;99202.94;4965734;28;19941;-60
2023/02/17 12:09:44;;;;;;;;;;;;;;;13.28;100.00;99205.38;4965100;28;19942;-60
2023/02/17 12:12:22;;;;;;;;;;;;;;;13.14;100.00;99193.66;4964732;28;20013;-61
2023/02/17 12:14:48;;;;;;;;;;;;;;;13.07;100.00;99185.16;4963925;28;19942;-59
2023/02/17 12:17:32;;;;;;;;;;;;;;;13.05;100.00;99165.50;4966991;28;19967;-59
2023/02/17 12:20:15;;;;;;;;;;;;;;;13.15;100.00;99178.16;4945190;28;19977;-59
2023/02/17 12:22:55;;;;;;;;;;;;;;;13.24;100.00;99175.41;4964591;28;20073;-60
2023/02/17 12:25:29;;;;;;;;;;;;;;;13.21;100.00;99162.59;4970233;28;19951;-63
2023/02/17 12:28:15;;;;;;;;;;;;;;;13.33;100.00;99169.22;4968960;28;19941;-60
2023/02/17 12:30:48;;;;;;;;;;;;;;;13.27;100.00;99165.06;4967841;28;20325;-62
2023/02/17 12:33:32;;;;;;;;;;;;;;;13.30;100.00;99158.13;4977513;28;20453;-60
2023/02/17 12:36:09;;;;;;;;;;;;;;;13.33;100.00;99155.50;5020607;28;20264;-60
2023/02/17 12:38:40;;;;;;;;;;;;;;;13.38;100.00;99159.66;5008553;28;19981;-59
2023/02/17 12:41:16;;;;;;;;;;;;;;;13.40;100.00;99152.78;5018963;28;19960;-60
2023/02/17 12:43:57;;;;;;;;;;;;;;;13.40;100.00;99163.06;4999763;28;19959;-61
2023/02/17 12:46:28;;;;;;;;;;;;;;;13.48;100.00;99165.47;5014004;28;20442;-62
2023/02/17 12:48:56;;;;;;;;;;;;;;;13.50;100.00;99156.81;5019240;28;20371;-63
2023/02/17 12:51:26;;;;;;;;;;;;;;;13.47;100.00;99153.47;5040453;28;19944;-63
2023/02/17 12:53:58;;;;;;;;;;;;;;;13.49;100.00;99147.41;5040961;28;19970;-63
2023/02/17 12:56:23;;;;;;;;;;;;;;;13.49;100.00;99156.88;5022671;28;19957;-61
2023/02/17 12:58:49;;;;;;;;;;;;;;;13.57;100.00;99157.53;5023408;28;20062;-64
2023/02/17 13:01:18;;;;;;;;;;;;;;;13.55;100.00;99149.00;5018975;28;19983;-61